createdAt,value
2023-04-23T00:00:15.416Z,85.25
2023-04-23T00:01:15.432Z,85.35
2023-04-23T00:02:15.430Z,85.45
2023-04-23T00:03:15.545Z,85.05
2023-04-23T00:04:15.598Z,85.45
2023-04-23T00:05:15.393Z,85.45
2023-04-23T00:06:15.366Z,85.45
2023-04-23T00:07:15.364Z,85.86
2023-04-23T00:08:15.324Z,86.37
2023-04-23T00:09:15.351Z,86.37
2023-04-23T00:10:15.321Z,85.96
2023-04-23T00:11:15.287Z,86.37
2023-04-23T00:12:15.290Z,86.06
2023-04-23T00:13:15.317Z,85.45
2023-04-23T00:14:15.255Z,85.55
2023-04-23T00:15:15.243Z,85.66
2023-04-23T00:16:15.280Z,85.39
2023-04-23T00:17:15.270Z,85.25
2023-04-23T00:18:15.269Z,85.45
2023-04-23T00:19:15.233Z,85.90
2023-04-23T00:20:15.202Z,85.45
2023-04-23T00:21:15.222Z,85.69
2023-04-23T00:22:15.219Z,85.96
2023-04-23T00:23:15.173Z,85.49
2023-04-23T00:24:15.159Z,85.49
2023-04-23T00:25:15.161Z,85.55
2023-04-23T00:26:15.118Z,85.45
2023-04-23T00:27:15.131Z,85.45
2023-04-23T00:28:15.108Z,86.10
2023-04-23T00:29:15.144Z,86.61
2023-04-23T00:30:15.097Z,86.30
2023-04-23T00:31:15.132Z,86.30
2023-04-23T00:32:15.064Z,86.27
2023-04-23T00:33:15.057Z,86.10
2023-04-23T00:34:15.029Z,86.21
2023-04-23T00:35:15.025Z,86.21
2023-04-23T00:36:15.039Z,86.10
2023-04-23T00:37:15.005Z,86.30
2023-04-23T00:38:15.005Z,86.41
2023-04-23T00:39:14.997Z,86.27
2023-04-23T00:40:14.969Z,86.10
2023-04-23T00:41:14.950Z,86.41
2023-04-23T00:42:14.943Z,86.41
2023-04-23T00:43:14.970Z,86.16
2023-04-23T00:44:14.908Z,86.21
2023-04-23T00:45:14.914Z,86.21
2023-04-23T00:46:14.912Z,86.30
2023-04-23T00:47:14.900Z,86.41
2023-04-23T00:48:14.916Z,87.02
2023-04-23T00:49:14.871Z,86.82
2023-04-23T00:50:14.854Z,86.61
2023-04-23T00:51:14.838Z,86.30
2023-04-23T00:52:14.849Z,86.10
2023-04-23T00:53:14.848Z,86.30
2023-04-23T00:54:14.827Z,86.82
2023-04-23T00:55:14.797Z,86.41
2023-04-23T00:56:14.804Z,87.06
2023-04-23T00:57:14.770Z,87.26
2023-04-23T00:58:14.765Z,87.06
2023-04-23T00:59:14.816Z,87.63
2023-04-23T01:00:14.740Z,87.26
2023-04-23T01:01:14.756Z,88.22
2023-04-23T01:02:14.779Z,87.77
2023-04-23T01:03:14.849Z,87.92
2023-04-23T01:04:14.840Z,88.84
2023-04-23T01:05:14.688Z,88.53
2023-04-23T01:06:14.663Z,88.43
2023-04-23T01:07:14.672Z,88.02
2023-04-23T01:08:14.689Z,88.43
2023-04-23T01:09:14.656Z,88.93
2023-04-23T01:10:14.627Z,88.69
2023-04-23T01:11:14.633Z,88.43
2023-04-23T01:12:14.612Z,89.14
2023-04-23T01:13:14.649Z,88.53
2023-04-23T01:14:14.633Z,88.43
2023-04-23T01:15:14.577Z,88.73
2023-04-23T01:16:14.557Z,88.57
2023-04-23T01:17:14.544Z,88.93
2023-04-23T01:18:14.526Z,89.18
2023-04-23T01:19:14.558Z,88.98
2023-04-23T01:20:14.521Z,88.88
2023-04-23T01:21:14.491Z,90.10
2023-04-23T01:22:14.509Z,89.79
2023-04-23T01:23:14.480Z,89.49
2023-04-23T01:24:14.507Z,89.53
2023-04-23T01:25:14.470Z,90.41
2023-04-23T01:26:14.430Z,89.39
2023-04-23T01:27:14.428Z,89.63
2023-04-23T01:28:14.470Z,89.63
2023-04-23T01:29:14.425Z,90.66
2023-04-23T01:30:14.398Z,89.53
2023-04-23T01:31:14.409Z,90.35
2023-04-23T01:32:14.404Z,90.04
2023-04-23T01:33:14.410Z,90.25
2023-04-23T01:34:14.355Z,90.35
2023-04-23T01:35:14.369Z,89.94
2023-04-23T01:36:14.335Z,89.94
2023-04-23T01:37:14.324Z,89.94
2023-04-23T01:38:14.312Z,90.55
2023-04-23T01:39:14.337Z,90.35
2023-04-23T01:40:14.317Z,90.35
2023-04-23T01:41:14.286Z,90.55
2023-04-23T01:42:14.250Z,91.00
2023-04-23T01:43:14.275Z,91.11
2023-04-23T01:44:14.260Z,91.27
2023-04-23T01:45:14.233Z,91.41
2023-04-23T01:46:14.277Z,91.00
2023-04-23T01:47:14.220Z,91.41
2023-04-23T01:48:14.236Z,91.52
2023-04-23T01:49:14.197Z,92.39
2023-04-23T01:50:14.159Z,92.02
2023-04-23T01:51:14.154Z,92.02
2023-04-23T01:52:14.158Z,91.82
2023-04-23T01:53:14.147Z,92.64
2023-04-23T01:54:14.143Z,92.43
2023-04-23T01:55:14.123Z,92.23
2023-04-23T01:56:14.111Z,93.15
2023-04-23T01:57:14.089Z,93.45
2023-04-23T01:58:14.092Z,93.19
2023-04-23T01:59:14.091Z,93.15
2023-04-23T02:00:14.072Z,93.25
2023-04-23T02:01:14.123Z,93.15
2023-04-23T02:02:14.156Z,93.45
2023-04-23T02:03:14.239Z,94.01
2023-04-23T02:04:14.201Z,93.70
2023-04-23T02:05:14.000Z,93.45
2023-04-23T02:06:13.986Z,93.60
2023-04-23T02:07:13.982Z,93.50
2023-04-23T02:08:13.968Z,93.35
2023-04-23T02:09:13.972Z,93.60
2023-04-23T02:10:13.931Z,93.35
2023-04-23T02:11:13.953Z,93.60
2023-04-23T02:12:13.942Z,94.62
2023-04-23T02:13:13.908Z,94.52
2023-04-23T02:14:13.912Z,94.32
2023-04-23T02:15:13.905Z,94.42
2023-04-23T02:16:13.923Z,94.42
2023-04-23T02:17:13.862Z,94.11
2023-04-23T02:18:13.853Z,94.21
2023-04-23T02:19:15.918Z,94.21
2023-04-23T02:20:13.826Z,94.01
2023-04-23T02:21:13.835Z,94.01
2023-04-23T02:22:13.819Z,94.42
2023-04-23T02:23:13.796Z,94.11
2023-04-23T02:24:13.798Z,94.21
2023-04-23T02:25:13.779Z,94.52
2023-04-23T02:26:13.757Z,94.32
2023-04-23T02:27:13.757Z,94.11
2023-04-23T02:28:13.773Z,94.52
2023-04-23T02:29:13.749Z,94.82
2023-04-23T02:30:13.707Z,94.73
2023-04-23T02:31:13.720Z,94.73
2023-04-23T02:32:13.701Z,94.82
2023-04-23T02:33:13.702Z,94.73
2023-04-23T02:34:13.708Z,95.28
2023-04-23T02:35:13.666Z,94.82
2023-04-23T02:36:13.660Z,94.77
2023-04-23T02:37:13.634Z,95.23
2023-04-23T02:38:13.640Z,95.18
2023-04-23T02:39:13.648Z,95.48
2023-04-23T02:40:13.624Z,95.48
2023-04-23T02:41:13.598Z,95.48
2023-04-23T02:42:13.572Z,95.48
2023-04-23T02:43:13.574Z,95.18
2023-04-23T02:44:13.594Z,95.07
2023-04-23T02:45:13.567Z,95.07
2023-04-23T02:46:13.565Z,94.71
2023-04-23T02:47:13.531Z,95.48
2023-04-23T02:48:13.514Z,95.89
2023-04-23T02:49:13.522Z,95.38
2023-04-23T02:50:13.501Z,96.30
2023-04-23T02:51:13.492Z,95.89
2023-04-23T02:52:13.462Z,95.84
2023-04-23T02:53:13.463Z,96.04
2023-04-23T02:54:13.463Z,95.84
2023-04-23T02:55:13.436Z,96.00
2023-04-23T02:56:13.455Z,96.86
2023-04-23T02:57:13.413Z,96.34
2023-04-23T02:58:13.398Z,96.66
2023-04-23T02:59:13.420Z,96.45
2023-04-23T03:00:13.397Z,96.66
2023-04-23T03:01:13.451Z,96.25
2023-04-23T03:02:13.396Z,96.66
2023-04-23T03:03:13.414Z,96.29
2023-04-23T03:04:13.434Z,96.55
2023-04-23T03:05:13.338Z,96.75
2023-04-23T03:06:13.312Z,96.86
2023-04-23T03:07:13.314Z,96.59
2023-04-23T03:08:13.290Z,96.34
2023-04-23T03:09:13.328Z,96.86
2023-04-23T03:10:13.258Z,96.45
2023-04-23T03:11:13.253Z,96.34
2023-04-23T03:12:13.233Z,96.80
2023-04-23T03:13:13.230Z,96.59
2023-04-23T03:14:13.240Z,96.70
2023-04-23T03:15:13.216Z,96.91
2023-04-23T03:16:13.258Z,96.39
2023-04-23T03:17:13.173Z,96.39
2023-04-23T03:18:13.171Z,96.49
2023-04-23T03:19:13.164Z,96.59
2023-04-23T03:20:13.147Z,96.49
2023-04-23T03:21:13.142Z,96.29
2023-04-23T03:22:13.112Z,96.70
2023-04-23T03:23:13.114Z,96.70
2023-04-23T03:24:13.112Z,96.29
2023-04-23T03:25:13.108Z,96.70
2023-04-23T03:26:13.065Z,96.49
2023-04-23T03:27:13.754Z,96.39
2023-04-23T03:28:13.055Z,96.39
2023-04-23T03:29:13.082Z,96.39
2023-04-23T03:30:13.042Z,96.91
2023-04-23T03:31:13.065Z,96.39
2023-04-23T03:32:13.032Z,96.80
2023-04-23T03:33:13.020Z,96.49
2023-04-23T03:34:13.065Z,96.91
2023-04-23T03:35:12.976Z,97.21
2023-04-23T03:36:12.974Z,97.82
2023-04-23T03:37:12.961Z,97.78
2023-04-23T03:38:12.929Z,97.88
2023-04-23T03:39:12.959Z,97.52
2023-04-23T03:40:12.914Z,97.72
2023-04-23T03:41:12.905Z,97.82
2023-04-23T03:42:12.896Z,97.92
2023-04-23T03:43:12.867Z,97.62
2023-04-23T03:44:12.899Z,97.31
2023-04-23T03:45:12.876Z,97.62
2023-04-23T03:46:12.883Z,97.41
2023-04-23T03:47:12.838Z,97.62
2023-04-23T03:48:12.858Z,97.41
2023-04-23T03:49:12.826Z,97.82
2023-04-23T03:50:12.884Z,97.52
2023-04-23T03:51:12.776Z,97.72
2023-04-23T03:52:12.777Z,97.41
2023-04-23T03:53:12.809Z,97.41
2023-04-23T03:54:12.759Z,97.52
2023-04-23T03:55:12.749Z,97.62
2023-04-23T03:56:12.748Z,97.52
2023-04-23T03:57:12.729Z,97.72
2023-04-23T03:58:12.708Z,97.62
2023-04-23T03:59:12.704Z,97.62
2023-04-23T04:00:12.734Z,97.21
2023-04-23T04:01:12.670Z,98.08
2023-04-23T04:02:12.768Z,98.33
2023-04-23T04:03:12.799Z,97.92
2023-04-23T04:04:13.017Z,97.92
2023-04-23T04:05:12.758Z,98.49
2023-04-23T04:06:12.625Z,97.92
2023-04-23T04:07:12.613Z,98.03
2023-04-23T04:08:12.605Z,98.08
2023-04-23T04:09:12.624Z,98.08
2023-04-23T04:10:12.585Z,98.24
2023-04-23T04:11:12.569Z,98.08
2023-04-23T04:12:12.566Z,98.19
2023-04-23T04:13:12.570Z,97.88
2023-04-23T04:14:12.555Z,98.19
2023-04-23T04:15:12.510Z,97.98
2023-04-23T04:16:12.528Z,98.29
2023-04-23T04:17:12.519Z,98.29
2023-04-23T04:18:12.496Z,98.08
2023-04-23T04:19:12.498Z,98.39
2023-04-23T04:20:12.495Z,97.88
2023-04-23T04:21:12.447Z,97.98
2023-04-23T04:22:12.452Z,97.83
2023-04-23T04:23:12.427Z,98.14
2023-04-23T04:24:12.430Z,97.94
2023-04-23T04:25:12.442Z,98.14
2023-04-23T04:26:12.386Z,98.04
2023-04-23T04:27:12.374Z,97.94
2023-04-23T04:28:12.388Z,97.94
2023-04-23T04:29:12.364Z,98.14
2023-04-23T04:30:12.345Z,98.35
2023-04-23T04:31:12.397Z,97.53
2023-04-23T04:32:12.319Z,97.83
2023-04-23T04:33:12.305Z,97.53
2023-04-23T04:34:12.295Z,97.33
2023-04-23T04:35:12.291Z,97.38
2023-04-23T04:36:12.341Z,97.02
2023-04-23T04:37:12.281Z,97.63
2023-04-23T04:38:12.256Z,97.74
2023-04-23T04:39:12.235Z,97.42
2023-04-23T04:40:12.236Z,97.42
2023-04-23T04:41:12.276Z,97.79
2023-04-23T04:42:12.202Z,97.79
2023-04-23T04:43:12.228Z,97.17
2023-04-23T04:44:12.184Z,97.08
2023-04-23T04:45:12.186Z,97.08
2023-04-23T04:46:12.170Z,96.77
2023-04-23T04:47:12.172Z,96.62
2023-04-23T04:48:12.150Z,96.87
2023-04-23T04:49:12.138Z,96.56
2023-04-23T04:50:12.128Z,96.51
2023-04-23T04:51:12.106Z,96.46
2023-04-23T04:52:12.144Z,96.42
2023-04-23T04:53:12.073Z,96.11
2023-04-23T04:54:12.075Z,96.42
2023-04-23T04:55:12.063Z,96.72
2023-04-23T04:56:12.052Z,96.26
2023-04-23T04:57:12.084Z,96.31
2023-04-23T04:58:12.029Z,96.01
2023-04-23T04:59:12.012Z,96.21
2023-04-23T05:00:12.012Z,96.11
2023-04-23T05:01:12.097Z,96.01
2023-04-23T05:02:12.070Z,96.21
2023-04-23T05:03:14.120Z,96.62
2023-04-23T05:04:12.087Z,96.51
2023-04-23T05:05:11.941Z,96.31
2023-04-23T05:06:11.931Z,96.51
2023-04-23T05:07:11.948Z,96.62
2023-04-23T05:08:11.944Z,96.58
2023-04-23T05:09:11.919Z,95.80
2023-04-23T05:10:11.918Z,95.90
2023-04-23T05:11:11.912Z,96.17
2023-04-23T05:12:11.877Z,95.96
2023-04-23T05:13:11.881Z,95.96
2023-04-23T05:14:11.850Z,95.86
2023-04-23T05:15:11.840Z,95.76
2023-04-23T05:16:11.853Z,96.17
2023-04-23T05:17:11.821Z,96.27
2023-04-23T05:18:11.805Z,95.56
2023-04-23T05:19:11.817Z,96.17
2023-04-23T05:20:11.797Z,96.06
2023-04-23T05:21:11.760Z,95.25
2023-04-23T05:22:11.801Z,95.25
2023-04-23T05:23:11.747Z,96.17
2023-04-23T05:24:11.798Z,95.35
2023-04-23T05:25:11.712Z,94.94
2023-04-23T05:26:11.723Z,95.35
2023-04-23T05:27:11.703Z,95.04
2023-04-23T05:28:11.683Z,95.15
2023-04-23T05:29:11.666Z,95.20
2023-04-23T05:30:11.671Z,95.20
2023-04-23T05:31:11.641Z,95.00
2023-04-23T05:32:11.718Z,95.15
2023-04-23T05:33:11.632Z,95.10
2023-04-23T05:34:11.614Z,95.31
2023-04-23T05:35:11.609Z,95.51
2023-04-23T05:36:11.609Z,95.10
2023-04-23T05:37:11.586Z,95.31
2023-04-23T05:38:11.562Z,95.10
2023-04-23T05:39:11.561Z,95.00
2023-04-23T05:40:11.577Z,94.34
2023-04-23T05:41:11.562Z,95.51
2023-04-23T05:42:11.540Z,94.38
2023-04-23T05:43:11.516Z,94.65
2023-04-23T05:44:11.504Z,94.90
2023-04-23T05:45:11.511Z,94.34
2023-04-23T05:46:11.511Z,94.34
2023-04-23T05:47:11.497Z,94.45
2023-04-23T05:48:11.482Z,94.65
2023-04-23T05:49:11.444Z,94.45
2023-04-23T05:50:11.438Z,94.34
2023-04-23T05:51:11.412Z,94.34
2023-04-23T05:52:11.435Z,93.99
2023-04-23T05:53:11.443Z,94.34
2023-04-23T05:54:11.387Z,94.40
2023-04-23T05:55:11.482Z,93.69
2023-04-23T05:56:11.388Z,93.93
2023-04-23T05:57:11.350Z,93.89
2023-04-23T05:58:11.342Z,93.18
2023-04-23T05:59:11.314Z,92.97
2023-04-23T06:00:11.327Z,93.38
2023-04-23T06:01:11.288Z,93.59
2023-04-23T06:02:11.456Z,93.07
2023-04-23T06:03:11.468Z,93.69
2023-04-23T06:04:11.426Z,93.07
2023-04-23T06:05:11.725Z,93.54
2023-04-23T06:06:11.235Z,92.63
2023-04-23T06:07:11.249Z,93.24
2023-04-23T06:08:11.227Z,93.24
2023-04-23T06:09:11.204Z,92.63
2023-04-23T06:10:11.216Z,92.46
2023-04-23T06:11:11.175Z,92.32
2023-04-23T06:12:11.207Z,92.72
2023-04-23T06:13:11.296Z,92.22
2023-04-23T06:14:11.182Z,92.63
2023-04-23T06:15:11.196Z,92.22
2023-04-23T06:16:11.233Z,91.87
2023-04-23T06:17:11.121Z,91.81
2023-04-23T06:18:11.157Z,91.77
2023-04-23T06:19:11.128Z,91.77
2023-04-23T06:20:11.101Z,91.97
2023-04-23T06:21:11.069Z,91.77
2023-04-23T06:22:11.068Z,91.97
2023-04-23T06:23:11.077Z,92.18
2023-04-23T06:24:11.099Z,91.83
2023-04-23T06:25:11.046Z,92.07
2023-04-23T06:26:11.015Z,91.62
2023-04-23T06:27:11.010Z,91.83
2023-04-23T06:28:11.056Z,90.85
2023-04-23T06:29:11.072Z,91.01
2023-04-23T06:30:10.958Z,91.22
2023-04-23T06:31:10.986Z,91.11
2023-04-23T06:32:10.951Z,91.11
2023-04-23T06:33:10.944Z,91.11
2023-04-23T06:34:10.946Z,91.01
2023-04-23T06:35:10.908Z,90.70
2023-04-23T06:36:10.907Z,90.97
2023-04-23T06:37:11.038Z,90.86
2023-04-23T06:38:11.039Z,90.97
2023-04-23T06:39:10.894Z,91.07
2023-04-23T06:40:10.846Z,90.36
2023-04-23T06:41:10.830Z,90.25
2023-04-23T06:42:10.823Z,89.85
2023-04-23T06:43:10.822Z,89.85
2023-04-23T06:44:10.849Z,89.50
2023-04-23T06:45:10.789Z,89.20
2023-04-23T06:46:10.824Z,89.00
2023-04-23T06:47:10.809Z,89.00
2023-04-23T06:48:10.790Z,89.09
2023-04-23T06:49:10.750Z,88.79
2023-04-23T06:50:10.756Z,88.79
2023-04-23T06:51:10.977Z,88.89
2023-04-23T06:52:10.724Z,88.18
2023-04-23T06:53:10.712Z,88.65
2023-04-23T06:54:10.697Z,88.48
2023-04-23T06:55:10.681Z,88.04
2023-04-23T06:56:10.690Z,88.24
2023-04-23T06:57:10.667Z,87.53
2023-04-23T06:58:10.685Z,87.53
2023-04-23T06:59:10.633Z,87.43
2023-04-23T07:00:10.656Z,86.92
2023-04-23T07:01:10.631Z,86.61
2023-04-23T07:02:10.656Z,86.98
2023-04-23T07:03:10.704Z,86.88
2023-04-23T07:04:10.780Z,87.18
2023-04-23T07:05:10.571Z,86.07
2023-04-23T07:06:10.570Z,86.88
2023-04-23T07:07:10.559Z,86.22
2023-04-23T07:08:10.560Z,86.37
2023-04-23T07:09:10.562Z,86.22
2023-04-23T07:10:10.523Z,86.13
2023-04-23T07:11:10.544Z,85.86
2023-04-23T07:12:10.508Z,86.13
2023-04-23T07:13:10.492Z,86.13
2023-04-23T07:14:10.485Z,85.92
2023-04-23T07:15:10.516Z,85.72
2023-04-23T07:16:10.584Z,85.62
2023-04-23T07:17:10.436Z,86.29
2023-04-23T07:18:10.442Z,85.07
2023-04-23T07:19:10.450Z,85.68
2023-04-23T07:20:10.426Z,83.34
2023-04-23T07:21:10.394Z,83.85
2023-04-23T07:22:10.387Z,84.26
2023-04-23T07:23:10.373Z,83.75
2023-04-23T07:24:10.597Z,84.46
2023-04-23T07:25:10.348Z,83.95
2023-04-23T07:26:10.354Z,83.20
2023-04-23T07:27:10.329Z,83.31
2023-04-23T07:28:10.383Z,83.31
2023-04-23T07:29:10.341Z,84.12
2023-04-23T07:30:10.478Z,83.51
2023-04-23T07:31:10.314Z,83.67
2023-04-23T07:32:10.376Z,82.96
2023-04-23T07:33:10.286Z,82.72
2023-04-23T07:34:10.418Z,80.79
2023-04-23T07:35:10.869Z,80.86
2023-04-23T07:36:10.317Z,80.65
2023-04-23T07:37:10.283Z,80.96
2023-04-23T07:38:10.328Z,79.94
2023-04-23T07:39:10.332Z,79.74
2023-04-23T07:40:10.232Z,79.40
2023-04-23T07:41:10.182Z,78.73
2023-04-23T07:42:10.181Z,79.10
2023-04-23T07:43:10.168Z,79.10
2023-04-23T07:44:10.840Z,78.93
2023-04-23T07:45:10.196Z,78.59
2023-04-23T07:46:10.163Z,78.39
2023-04-23T07:47:10.118Z,77.78
2023-04-23T07:48:10.116Z,78.69
2023-04-23T07:49:10.106Z,78.08
2023-04-23T07:50:10.077Z,77.75
2023-04-23T07:51:10.059Z,77.24
2023-04-23T07:52:10.067Z,76.39
2023-04-23T07:53:10.050Z,76.29
2023-04-23T07:54:10.115Z,76.46
2023-04-23T07:55:10.143Z,75.45
2023-04-23T07:56:10.025Z,76.66
2023-04-23T07:57:10.003Z,74.94
2023-04-23T07:58:09.994Z,74.90
2023-04-23T07:59:10.007Z,74.84
2023-04-23T08:00:09.975Z,74.94
2023-04-23T08:01:09.971Z,73.08
2023-04-23T08:02:10.095Z,73.59
2023-04-23T08:03:10.084Z,73.99
2023-04-23T08:04:10.233Z,74.50
2023-04-23T08:05:10.185Z,74.70
2023-04-23T08:06:10.034Z,74.60
2023-04-23T08:07:09.894Z,73.99
2023-04-23T08:08:09.882Z,74.10
2023-04-23T08:09:09.865Z,73.75
2023-04-23T08:10:09.870Z,73.90
2023-04-23T08:11:09.841Z,73.15
2023-04-23T08:12:09.848Z,72.95
2023-04-23T08:13:09.940Z,74.26
2023-04-23T08:14:09.808Z,73.69
2023-04-23T08:15:09.814Z,73.28
2023-04-23T08:16:09.819Z,73.72
2023-04-23T08:17:09.761Z,74.63
2023-04-23T08:18:09.759Z,74.84
2023-04-23T08:19:09.758Z,75.24
2023-04-23T08:20:09.748Z,74.60
2023-04-23T08:21:09.712Z,74.60
2023-04-23T08:22:09.732Z,75.14
2023-04-23T08:23:09.702Z,74.74
2023-04-23T08:24:09.717Z,74.63
2023-04-23T08:25:09.704Z,75.04
2023-04-23T08:26:09.652Z,75.14
2023-04-23T08:27:09.664Z,75.95
2023-04-23T08:28:09.691Z,74.74
2023-04-23T08:29:11.499Z,76.46
2023-04-23T08:30:09.648Z,76.35
2023-04-23T08:31:22.864Z,74.63
2023-04-23T08:32:10.612Z,74.74
2023-04-23T08:33:09.643Z,75.34
2023-04-23T08:34:09.610Z,74.84
2023-04-23T08:35:09.580Z,75.75
2023-04-23T08:36:09.563Z,75.14
2023-04-23T08:37:16.540Z,76.15
2023-04-23T08:38:10.530Z,75.24
2023-04-23T08:39:09.534Z,74.84
2023-04-23T08:40:09.524Z,75.79
2023-04-23T08:41:09.496Z,75.48
2023-04-23T08:42:09.466Z,75.65
2023-04-23T08:43:09.482Z,75.38
2023-04-23T08:44:09.461Z,75.48
2023-04-23T08:45:09.458Z,74.87
2023-04-23T08:46:09.474Z,75.58
2023-04-23T08:47:09.426Z,75.89
2023-04-23T08:48:09.429Z,74.77
2023-04-23T08:49:09.401Z,75.79
2023-04-23T08:50:09.421Z,76.22
2023-04-23T08:51:09.399Z,75.27
2023-04-23T08:52:09.424Z,74.73
2023-04-23T08:53:09.382Z,73.18
2023-04-23T08:54:09.367Z,72.24
2023-04-23T08:55:09.344Z,71.80
2023-04-23T08:56:09.328Z,71.91
2023-04-23T08:57:09.325Z,72.81
2023-04-23T08:58:09.297Z,70.49
2023-04-23T08:59:09.307Z,70.79
2023-04-23T09:00:09.292Z,71.03
2023-04-23T09:01:09.310Z,71.44
2023-04-23T09:02:09.362Z,71.87
2023-04-23T09:03:09.345Z,71.94
2023-04-23T09:04:09.232Z,72.04
2023-04-23T09:05:09.249Z,71.64
2023-04-23T09:06:09.193Z,70.73
2023-04-23T09:07:09.200Z,71.20
2023-04-23T09:08:09.210Z,70.32
2023-04-23T09:09:09.172Z,69.52
2023-04-23T09:10:09.181Z,70.02
2023-04-23T09:11:09.156Z,70.32
2023-04-23T09:12:09.142Z,69.52
2023-04-23T09:13:09.120Z,69.24
2023-04-23T09:14:09.116Z,70.36
2023-04-23T09:15:09.139Z,70.15
2023-04-23T09:16:09.118Z,70.15
2023-04-23T09:17:09.077Z,69.78
2023-04-23T09:18:09.077Z,69.98
2023-04-23T09:19:09.049Z,70.49
2023-04-23T09:20:09.064Z,70.39
2023-04-23T09:21:09.045Z,70.89
2023-04-23T09:22:09.019Z,70.69
2023-04-23T09:23:09.029Z,69.78
2023-04-23T09:24:09.011Z,69.35
2023-04-23T09:25:08.996Z,68.87
2023-04-23T09:26:08.980Z,68.33
2023-04-23T09:27:08.976Z,68.95
2023-04-23T09:28:08.998Z,68.13
2023-04-23T09:29:08.951Z,68.07
2023-04-23T09:30:08.919Z,66.25
2023-04-23T09:31:08.914Z,66.66
2023-04-23T09:32:08.942Z,66.63
2023-04-23T09:33:08.948Z,64.98
2023-04-23T09:34:08.892Z,65.56
2023-04-23T09:35:08.890Z,65.26
2023-04-23T09:36:08.891Z,64.42
2023-04-23T09:37:08.867Z,64.32
2023-04-23T09:38:08.886Z,63.89
2023-04-23T09:39:08.841Z,63.01
2023-04-23T09:40:08.858Z,63.01
2023-04-23T09:41:08.809Z,63.51
2023-04-23T09:42:08.792Z,63.71
2023-04-23T09:43:08.782Z,63.71
2023-04-23T09:44:08.811Z,63.71
2023-04-23T09:45:08.756Z,64.02
2023-04-23T09:46:08.800Z,62.84
2023-04-23T09:47:08.736Z,62.94
2023-04-23T09:48:08.760Z,62.94
2023-04-23T09:49:08.745Z,62.34
2023-04-23T09:50:08.722Z,62.84
2023-04-23T09:51:08.708Z,62.37
2023-04-23T09:52:08.689Z,63.27
2023-04-23T09:53:08.668Z,62.94
2023-04-23T09:54:08.724Z,62.04
2023-04-23T09:55:08.690Z,62.24
2023-04-23T09:56:08.667Z,61.43
2023-04-23T09:57:08.640Z,61.76
2023-04-23T09:58:08.642Z,62.26
2023-04-23T09:59:08.598Z,61.86
2023-04-23T10:00:14.501Z,62.40
2023-04-23T10:01:09.689Z,62.49
2023-04-23T10:02:08.684Z,62.87
2023-04-23T10:03:08.875Z,62.46
2023-04-23T10:04:08.658Z,62.57
2023-04-23T10:05:21.724Z,62.40
2023-04-23T10:06:17.251Z,62.40
2023-04-23T10:08:09.585Z,61.99
2023-04-23T10:09:08.519Z,62.09
2023-04-23T10:10:08.468Z,61.59
2023-04-23T10:11:20.453Z,61.36
2023-04-23T10:12:20.801Z,60.25
2023-04-23T10:13:09.438Z,59.62
2023-04-23T10:14:08.458Z,59.89
2023-04-23T10:15:08.428Z,59.59
2023-04-23T10:16:21.297Z,59.16
2023-04-23T10:17:10.521Z,58.88
2023-04-23T10:18:08.385Z,59.48
2023-04-23T10:19:08.390Z,58.78
2023-04-23T10:20:08.355Z,58.31
2023-04-23T10:21:08.383Z,59.84
2023-04-23T10:22:18.649Z,59.84
2023-04-23T10:23:09.339Z,60.85
2023-04-23T10:24:08.346Z,60.55
2023-04-23T10:25:08.347Z,60.75
2023-04-23T10:26:08.329Z,61.05
2023-04-23T10:27:21.810Z,60.55
2023-04-23T10:28:09.282Z,59.84
2023-04-23T10:29:08.273Z,60.25
2023-04-23T10:30:08.263Z,60.05
2023-04-23T10:31:08.282Z,60.28
2023-04-23T10:32:08.249Z,59.57
2023-04-23T10:33:15.714Z,59.47
2023-04-23T10:34:09.224Z,59.77
2023-04-23T10:35:08.248Z,59.27
2023-04-23T10:36:08.198Z,59.77
2023-04-23T10:37:08.373Z,60.08
2023-04-23T10:38:08.153Z,60.78
2023-04-23T10:39:09.339Z,59.88
2023-04-23T10:40:08.147Z,60.17
2023-04-23T10:41:08.151Z,60.08
2023-04-23T10:42:08.141Z,59.55
2023-04-23T10:43:08.113Z,60.17
2023-04-23T10:44:08.125Z,60.28
2023-04-23T10:45:20.245Z,60.25
2023-04-23T10:46:09.098Z,59.75
2023-04-23T10:47:08.073Z,59.84
2023-04-23T10:48:08.070Z,59.44
2023-04-23T10:49:08.032Z,59.24
2023-04-23T10:50:08.052Z,59.64
2023-04-23T10:51:31.867Z,59.11
2023-04-23T10:52:19.325Z,59.42
2023-04-23T10:53:08.992Z,59.92
2023-04-23T10:54:07.997Z,59.08
2023-04-23T10:55:08.001Z,59.22
2023-04-23T10:56:08.007Z,59.82
2023-04-23T10:57:07.959Z,59.52
2023-04-23T10:58:08.386Z,59.48
2023-04-23T10:59:07.922Z,59.52
2023-04-23T11:00:07.956Z,58.21
2023-04-23T11:01:07.909Z,57.40
2023-04-23T11:02:07.949Z,57.40
2023-04-23T11:03:08.006Z,57.90
2023-04-23T11:04:08.050Z,58.14
2023-04-23T11:05:07.939Z,57.53
2023-04-23T11:06:07.894Z,57.50
2023-04-23T11:07:07.830Z,58.03
2023-04-23T11:08:18.728Z,57.90
2023-04-23T11:09:08.839Z,57.20
2023-04-23T11:10:07.794Z,57.10
2023-04-23T11:11:07.811Z,57.48
2023-04-23T11:12:07.780Z,57.55
2023-04-23T11:13:07.782Z,56.64
2023-04-23T11:14:07.746Z,55.74
2023-04-23T11:15:07.749Z,55.91
2023-04-23T11:16:07.797Z,55.23
2023-04-23T11:17:07.739Z,55.00
2023-04-23T11:18:07.738Z,55.31
2023-04-23T11:19:07.736Z,55.91
2023-04-23T11:20:07.711Z,55.79
2023-04-23T11:21:07.719Z,55.08
2023-04-23T11:22:07.660Z,55.28
2023-04-23T11:23:07.682Z,56.09
2023-04-23T11:24:07.683Z,56.01
2023-04-23T11:25:07.641Z,56.11
2023-04-23T11:26:07.642Z,55.83
2023-04-23T11:27:07.633Z,56.14
2023-04-23T11:28:07.586Z,56.07
2023-04-23T11:29:07.595Z,55.87
2023-04-23T11:30:07.579Z,56.90
2023-04-23T11:31:07.595Z,57.10
2023-04-23T11:32:07.606Z,57.10
2023-04-23T11:33:07.651Z,58.01
2023-04-23T11:34:07.545Z,57.40
2023-04-23T11:35:07.512Z,57.50
2023-04-23T11:36:07.557Z,57.50
2023-04-23T11:37:07.490Z,57.20
2023-04-23T11:38:07.494Z,57.32
2023-04-23T11:39:07.475Z,57.60
2023-04-23T11:40:07.460Z,57.50
2023-04-23T11:41:07.464Z,58.11
2023-04-23T11:42:07.456Z,57.60
2023-04-23T11:43:07.431Z,55.99
2023-04-23T11:44:07.421Z,55.69
2023-04-23T11:45:07.425Z,55.79
2023-04-23T11:46:07.468Z,55.89
2023-04-23T11:47:07.412Z,55.46
2023-04-23T11:48:07.465Z,55.46
2023-04-23T11:49:07.387Z,55.16
2023-04-23T11:50:07.362Z,55.26
2023-04-23T11:51:07.371Z,54.93
2023-04-23T11:52:07.350Z,55.43
2023-04-23T11:53:07.354Z,55.16
2023-04-23T11:54:07.297Z,56.04
2023-04-23T11:55:07.304Z,56.04
2023-04-23T11:56:07.293Z,55.83
2023-04-23T11:57:07.273Z,56.04
2023-04-23T11:58:07.263Z,56.04
2023-04-23T11:59:07.276Z,56.84
2023-04-23T12:00:07.227Z,55.91
2023-04-23T12:01:07.245Z,55.61
2023-04-23T12:02:07.300Z,55.79
2023-04-23T12:03:07.396Z,55.38
2023-04-23T12:04:07.342Z,54.78
2023-04-23T12:05:07.190Z,54.96
2023-04-23T12:06:07.173Z,54.22
2023-04-23T12:07:19.387Z,54.43
2023-04-23T12:08:08.135Z,54.20
2023-04-23T12:09:07.151Z,53.00
2023-04-23T12:10:07.113Z,52.97
2023-04-23T12:11:07.129Z,51.97
2023-04-23T12:12:07.112Z,51.06
2023-04-23T12:13:07.094Z,51.79
2023-04-23T12:14:07.072Z,51.89
2023-04-23T12:15:07.096Z,51.79
2023-04-23T12:16:08.615Z,51.79
2023-04-23T12:17:07.043Z,52.69
2023-04-23T12:18:07.036Z,52.37
2023-04-23T12:19:07.050Z,52.67
2023-04-23T12:20:07.053Z,51.17
2023-04-23T12:21:07.000Z,51.56
2023-04-23T12:22:07.002Z,51.01
2023-04-23T12:23:06.990Z,52.12
2023-04-23T12:24:06.980Z,50.42
2023-04-23T12:25:06.963Z,49.91
2023-04-23T12:26:06.957Z,49.91
2023-04-23T12:27:06.999Z,49.81
2023-04-23T12:28:06.964Z,49.69
2023-04-23T12:29:06.908Z,50.21
2023-04-23T12:30:07.471Z,50.29
2023-04-23T12:31:06.906Z,50.29
2023-04-23T12:32:06.863Z,50.37
2023-04-23T12:33:06.875Z,49.64
2023-04-23T12:34:06.861Z,49.94
2023-04-23T12:35:06.831Z,48.74
2023-04-23T12:36:06.884Z,48.84
2023-04-23T12:37:06.831Z,47.94
2023-04-23T12:38:06.814Z,47.24
2023-04-23T12:39:06.799Z,46.54
2023-04-23T12:40:06.812Z,46.34
2023-04-23T12:41:06.797Z,46.56
2023-04-23T12:42:06.864Z,46.81
2023-04-23T12:43:06.741Z,48.91
2023-04-23T12:44:06.749Z,48.31
2023-04-23T12:45:06.731Z,48.91
2023-04-23T12:46:06.731Z,49.21
2023-04-23T12:47:06.739Z,49.11
2023-04-23T12:48:06.752Z,49.01
2023-04-23T12:49:06.702Z,48.63
2023-04-23T12:50:06.725Z,48.46
2023-04-23T12:51:06.695Z,49.76
2023-04-23T12:52:06.670Z,49.26
2023-04-23T12:53:06.647Z,49.78